createdAt,value
2023-03-20T00:02:04.084Z,8.05
2023-03-20T00:04:31.363Z,7.30
2023-03-20T00:06:58.293Z,7.28
2023-03-20T00:09:28.371Z,7.28
2023-03-20T00:11:55.706Z,7.45
2023-03-20T00:14:24.822Z,6.78
2023-03-20T00:16:52.304Z,6.00
2023-03-20T00:19:23.349Z,5.93
2023-03-20T00:21:51.520Z,6.47
2023-03-20T00:24:18.526Z,6.10
2023-03-20T00:26:46.957Z,6.00
2023-03-20T00:29:30.806Z,5.60
2023-03-20T00:31:59.038Z,6.00
2023-03-20T00:34:29.601Z,5.80
2023-03-20T00:36:56.747Z,5.80
2023-03-20T00:39:23.803Z,5.40
2023-03-20T00:41:52.965Z,5.90
2023-03-20T00:44:21.215Z,5.20
2023-03-20T00:46:51.896Z,5.80
2023-03-20T00:49:24.774Z,5.80
2023-03-20T00:51:51.611Z,5.32
2023-03-20T00:54:18.552Z,4.75
2023-03-20T00:57:05.672Z,4.72
2023-03-20T00:59:38.789Z,4.63
2023-03-20T01:02:06.307Z,5.27
2023-03-20T01:04:40.251Z,4.88
2023-03-20T01:07:10.613Z,4.70
2023-03-20T01:09:37.546Z,4.80
2023-03-20T01:12:05.483Z,5.20
2023-03-20T01:14:32.340Z,5.75
2023-03-20T01:16:59.209Z,5.85
2023-03-20T01:19:26.182Z,5.90
2023-03-20T01:21:53.206Z,5.65
2023-03-20T01:24:20.074Z,6.15
2023-03-20T01:26:47.079Z,7.22
2023-03-20T01:29:25.682Z,7.50
2023-03-20T01:31:53.448Z,8.05
2023-03-20T01:34:22.665Z,8.18
2023-03-20T01:36:55.467Z,8.65
2023-03-20T01:39:28.988Z,8.73
2023-03-20T01:41:56.063Z,8.80
2023-03-20T01:44:31.874Z,8.80
2023-03-20T01:47:01.344Z,8.65
2023-03-20T01:49:28.741Z,9.90
2023-03-20T01:51:59.657Z,9.88
2023-03-20T01:54:34.792Z,9.00
2023-03-20T01:57:20.502Z,9.07
2023-03-20T01:59:51.823Z,9.88
2023-03-20T02:02:26.144Z,10.43
2023-03-20T02:04:58.985Z,10.15
2023-03-20T02:07:26.157Z,9.68
2023-03-20T02:09:59.933Z,9.95
2023-03-20T02:12:38.802Z,9.67
2023-03-20T02:15:08.358Z,10.27
2023-03-20T02:17:55.548Z,10.48
2023-03-20T02:20:50.372Z,10.07
2023-03-20T02:23:58.606Z,10.90
2023-03-20T02:26:51.658Z,11.00
2023-03-20T02:29:59.572Z,11.75
2023-03-20T02:32:54.316Z,12.82
2023-03-20T02:35:37.908Z,13.43
2023-03-20T02:38:23.733Z,14.02
2023-03-20T02:41:08.812Z,14.10
2023-03-20T02:43:51.515Z,14.68
2023-03-20T02:46:28.963Z,15.07
2023-03-20T02:49:28.549Z,14.93
2023-03-20T02:52:32.408Z,14.15
2023-03-20T02:55:21.581Z,13.98
2023-03-20T02:57:48.500Z,14.35
2023-03-20T03:00:29.942Z,14.13
2023-03-20T03:03:14.025Z,14.80
2023-03-20T03:05:47.922Z,13.15
2023-03-20T03:08:19.616Z,14.00
2023-03-20T03:10:57.522Z,14.32
2023-03-20T03:13:29.342Z,14.27
2023-03-20T03:16:03.288Z,14.77
2023-03-20T03:18:32.235Z,14.57
2023-03-20T03:21:02.479Z,14.32
2023-03-20T03:23:43.430Z,14.90
2023-03-20T03:26:19.908Z,14.48
2023-03-20T03:28:58.017Z,15.05
2023-03-20T03:31:25.911Z,14.82
2023-03-20T03:33:56.132Z,14.82
2023-03-20T03:36:41.484Z,14.88
2023-03-20T03:39:39.672Z,15.25
2023-03-20T03:42:33.759Z,14.77
2023-03-20T03:45:18.956Z,14.95
2023-03-20T03:47:54.832Z,14.35
2023-03-20T03:50:47.852Z,13.93
2023-03-20T03:53:20.676Z,14.77
2023-03-20T03:55:53.774Z,14.05
2023-03-20T03:58:28.084Z,14.57
2023-03-20T04:00:57.996Z,14.00
2023-03-20T04:03:31.020Z,14.68
2023-03-20T04:05:59.399Z,15.25
2023-03-20T04:08:27.035Z,15.48
2023-03-20T04:10:54.003Z,15.40
2023-03-20T04:13:21.021Z,15.63
2023-03-20T04:15:47.927Z,15.60
2023-03-20T04:18:17.023Z,15.52
2023-03-20T04:20:46.759Z,16.20
2023-03-20T04:23:14.845Z,15.70
2023-03-20T04:25:42.390Z,16.42
2023-03-20T04:28:09.334Z,15.48
2023-03-20T04:30:48.128Z,15.55
2023-03-20T04:33:22.235Z,15.50
2023-03-20T04:36:01.493Z,15.40
2023-03-20T04:38:28.448Z,14.85
2023-03-20T04:40:55.934Z,14.55
2023-03-20T04:43:23.015Z,15.52
2023-03-20T04:45:51.456Z,15.32
2023-03-20T04:48:18.574Z,15.48
2023-03-20T04:50:51.071Z,15.18
2023-03-20T04:53:22.387Z,14.77
2023-03-20T04:55:51.656Z,14.52
2023-03-20T04:58:19.514Z,14.30
2023-03-20T05:00:47.077Z,14.43
2023-03-20T05:03:14.273Z,15.02
2023-03-20T05:05:41.206Z,14.93
2023-03-20T05:08:08.245Z,14.55
2023-03-20T05:10:37.633Z,14.45
2023-03-20T05:13:10.583Z,13.52
2023-03-20T05:15:57.677Z,14.23
2023-03-20T05:18:48.028Z,13.98
2023-03-20T05:21:41.127Z,14.75
2023-03-20T05:24:30.220Z,14.57
2023-03-20T05:27:26.409Z,15.23
2023-03-20T05:30:22.388Z,14.35
2023-03-20T05:33:09.410Z,14.02
2023-03-20T05:35:47.034Z,13.63
2023-03-20T05:38:40.297Z,14.27
2023-03-20T05:41:25.146Z,14.10
2023-03-20T05:44:07.121Z,14.27
2023-03-20T05:46:56.852Z,13.95
2023-03-20T05:49:53.626Z,14.10
2023-03-20T05:52:26.745Z,14.02
2023-03-20T05:55:19.250Z,13.70
2023-03-20T05:57:53.369Z,14.63
2023-03-20T06:00:40.659Z,13.93
2023-03-20T06:03:33.108Z,14.13
2023-03-20T06:06:10.591Z,14.60
2023-03-20T06:08:37.900Z,14.38
2023-03-20T06:11:06.229Z,13.48
2023-03-20T06:13:36.017Z,13.65
2023-03-20T06:16:04.327Z,14.15
2023-03-20T06:18:31.330Z,13.95
2023-03-20T06:20:58.959Z,14.88
2023-03-20T06:23:28.897Z,13.90
2023-03-20T06:25:56.140Z,14.25
2023-03-20T06:28:23.204Z,13.20
2023-03-20T06:30:57.734Z,13.60
2023-03-20T06:33:25.102Z,13.32
2023-03-20T06:35:58.443Z,13.25
2023-03-20T06:38:27.471Z,12.70
2023-03-20T06:40:54.465Z,13.13
2023-03-20T06:43:22.993Z,13.00
2023-03-20T06:45:52.815Z,12.57
2023-03-20T06:48:26.164Z,14.30
2023-03-20T06:50:53.332Z,13.23
2023-03-20T06:53:23.901Z,11.90
2023-03-20T06:56:22.734Z,12.00
2023-03-20T06:58:49.605Z,12.23
2023-03-20T07:01:19.812Z,13.10
2023-03-20T07:03:46.895Z,11.65
2023-03-20T07:06:15.992Z,11.68
2023-03-20T07:08:42.833Z,11.57
2023-03-20T07:11:10.135Z,11.68
2023-03-20T07:13:38.046Z,12.07
2023-03-20T07:16:15.282Z,11.63
2023-03-20T07:18:42.439Z,11.17
2023-03-20T07:21:14.458Z,10.90
2023-03-20T07:23:42.122Z,11.18
2023-03-20T07:26:09.175Z,10.75
2023-03-20T07:28:36.121Z,10.63
2023-03-20T07:31:31.231Z,10.98
2023-03-20T07:34:08.780Z,11.63
2023-03-20T07:36:35.816Z,10.73
2023-03-20T07:39:02.800Z,10.17
2023-03-20T07:41:31.509Z,13.02
2023-03-20T07:44:08.421Z,13.35
2023-03-20T07:47:07.789Z,12.07
2023-03-20T07:49:35.064Z,10.80
2023-03-20T07:52:01.947Z,9.90
2023-03-20T07:54:30.029Z,9.40
2023-03-20T07:56:57.942Z,10.20
2023-03-20T07:59:24.934Z,9.43
2023-03-20T08:01:52.336Z,10.30
2023-03-20T08:04:22.316Z,10.10
2023-03-20T08:06:50.003Z,9.30
2023-03-20T08:09:17.928Z,9.60
2023-03-20T08:11:45.228Z,9.02
2023-03-20T08:14:12.546Z,9.50
2023-03-20T08:16:39.699Z,8.50
2023-03-20T08:19:06.754Z,9.00
2023-03-20T08:21:33.783Z,8.45
2023-03-20T08:24:00.646Z,8.53
2023-03-20T08:26:27.938Z,8.20
2023-03-20T08:28:56.235Z,8.40
2023-03-20T08:31:23.118Z,8.25
2023-03-20T08:33:50.014Z,7.72
2023-03-20T08:36:19.771Z,7.80
2023-03-20T08:38:48.202Z,7.88
2023-03-20T08:41:16.029Z,7.35
2023-03-20T08:43:43.210Z,7.95
2023-03-20T08:46:10.988Z,7.88
2023-03-20T08:48:37.851Z,7.75
2023-03-20T08:51:05.320Z,8.07
2023-03-20T08:53:32.136Z,7.40
2023-03-20T08:56:01.701Z,7.60
2023-03-20T08:58:29.644Z,7.75
2023-03-20T09:00:56.689Z,7.15
2023-03-20T09:03:23.567Z,6.90
2023-03-20T09:05:52.339Z,7.15
2023-03-20T09:08:19.658Z,7.47
2023-03-20T09:10:51.439Z,7.20
2023-03-20T09:13:27.092Z,7.20
2023-03-20T09:15:55.789Z,6.75
2023-03-20T09:18:23.576Z,7.00
2023-03-20T09:20:50.959Z,6.90
2023-03-20T09:23:18.386Z,6.50
2023-03-20T09:25:46.437Z,6.93
2023-03-20T09:28:13.384Z,7.10
2023-03-20T09:30:40.685Z,6.93
2023-03-20T09:33:07.512Z,7.20
2023-03-20T09:35:34.563Z,7.40
2023-03-20T09:38:01.699Z,7.18
2023-03-20T09:40:54.642Z,6.55
2023-03-20T09:43:47.752Z,6.95
2023-03-20T09:47:19.897Z,6.18
2023-03-20T09:50:08.738Z,6.90
2023-03-20T09:52:41.124Z,6.20
2023-03-20T09:55:17.690Z,6.38
2023-03-20T09:57:49.243Z,6.35
2023-03-20T10:00:20.473Z,5.70
2023-03-20T10:02:47.479Z,5.82
2023-03-20T10:05:45.180Z,6.10
2023-03-20T10:08:19.477Z,6.18
2023-03-20T10:11:27.691Z,5.97
2023-03-20T10:13:56.018Z,6.55
2023-03-20T10:16:36.610Z,6.70
2023-03-20T10:19:18.929Z,6.82
2023-03-20T10:21:54.027Z,6.57
2023-03-20T10:24:32.130Z,6.22
2023-03-20T10:27:06.556Z,5.90
2023-03-20T10:29:39.994Z,7.05
2023-03-20T10:32:35.398Z,6.65
2023-03-20T10:35:30.307Z,7.32
2023-03-20T10:38:24.996Z,6.95
2023-03-20T10:40:53.015Z,7.30
2023-03-20T10:43:28.629Z,7.85
2023-03-20T10:46:08.194Z,8.00
2023-03-20T10:48:41.095Z,8.35
2023-03-20T10:51:14.726Z,8.35
2023-03-20T10:53:49.316Z,9.00
2023-03-20T10:56:38.066Z,8.45
2023-03-20T10:59:12.751Z,8.70
2023-03-20T11:01:39.712Z,8.98
2023-03-20T11:04:07.371Z,9.65
2023-03-20T11:06:50.561Z,9.63
2023-03-20T11:09:26.579Z,9.30
2023-03-20T11:11:57.688Z,10.30
2023-03-20T11:14:28.104Z,9.93
2023-03-20T11:17:00.322Z,10.18
2023-03-20T11:19:27.422Z,11.00
2023-03-20T11:21:56.937Z,10.57
2023-03-20T11:24:43.125Z,10.88
2023-03-20T11:27:14.104Z,10.57
2023-03-20T11:29:45.559Z,10.65
2023-03-20T11:32:32.217Z,11.35
2023-03-20T11:35:10.751Z,11.80
2023-03-20T11:37:45.100Z,11.23
2023-03-20T11:40:21.051Z,11.05
2023-03-20T11:43:10.392Z,11.57
2023-03-20T11:45:40.634Z,12.02
2023-03-20T11:48:19.026Z,11.57
2023-03-20T11:51:02.699Z,12.10
2023-03-20T11:53:36.798Z,11.80
2023-03-20T11:56:14.728Z,12.18
2023-03-20T11:59:03.591Z,12.00
2023-03-20T12:01:47.252Z,12.02
2023-03-20T12:04:26.092Z,11.82
2023-03-20T12:07:14.353Z,10.75
2023-03-20T12:10:05.575Z,11.30
2023-03-20T12:12:41.176Z,11.27
2023-03-20T12:15:28.654Z,10.80
2023-03-20T12:17:58.258Z,11.43
2023-03-20T12:20:49.259Z,11.23
2023-03-20T12:23:35.808Z,11.38
2023-03-20T12:26:23.998Z,11.00
2023-03-20T12:28:54.227Z,11.27
2023-03-20T12:31:23.954Z,11.52
2023-03-20T12:34:16.581Z,11.13
2023-03-20T12:36:47.146Z,11.20
2023-03-20T12:39:34.480Z,11.35
2023-03-20T12:42:14.190Z,10.88
2023-03-20T12:44:58.886Z,11.13
2023-03-20T12:47:41.849Z,11.07
2023-03-20T12:50:33.434Z,10.93
2023-03-20T12:53:22.049Z,11.25
2023-03-20T12:56:06.063Z,11.55
2023-03-20T12:58:59.412Z,11.57
2023-03-20T13:01:31.835Z,11.77
2023-03-20T13:04:40.895Z,11.68
2023-03-20T13:07:17.121Z,12.13
2023-03-20T13:10:14.222Z,11.32
2023-03-20T13:13:08.421Z,11.90
2023-03-20T13:15:50.267Z,11.23
2023-03-20T13:18:41.069Z,11.32
2023-03-20T13:21:14.190Z,11.90
2023-03-20T13:23:46.353Z,11.80
2023-03-20T13:26:48.087Z,11.70
2023-03-20T13:29:33.030Z,11.63
2023-03-20T13:32:18.547Z,11.90
2023-03-20T13:34:58.353Z,11.70
2023-03-20T13:37:36.165Z,12.40
2023-03-20T13:40:21.781Z,12.60
2023-03-20T13:43:03.650Z,12.88
2023-03-20T13:45:35.851Z,12.82
2023-03-20T13:48:12.078Z,13.57
2023-03-20T13:50:48.219Z,12.63
2023-03-20T13:53:22.612Z,12.45
2023-03-20T13:56:04.524Z,12.15
2023-03-20T13:58:34.307Z,13.57
2023-03-20T14:01:24.471Z,13.50
2023-03-20T14:03:54.062Z,14.07
2023-03-20T14:06:43.515Z,13.68
2023-03-20T14:09:32.059Z,13.50
2023-03-20T14:12:11.678Z,12.40
2023-03-20T14:14:53.382Z,12.85
2023-03-20T14:17:21.916Z,13.35
2023-03-20T14:19:50.784Z,14.55
2023-03-20T14:22:27.749Z,14.02
2023-03-20T14:24:58.975Z,14.38
2023-03-20T14:27:43.975Z,15.10
2023-03-20T14:30:29.980Z,15.77
2023-03-20T14:33:15.861Z,15.57
2023-03-20T14:35:50.357Z,14.85
2023-03-20T14:38:25.682Z,14.60
2023-03-20T14:41:06.273Z,14.38
2023-03-20T14:43:52.006Z,14.75
2023-03-20T14:46:29.442Z,15.68
2023-03-20T14:48:56.746Z,15.95
2023-03-20T14:51:51.508Z,15.70
2023-03-20T14:54:21.470Z,15.40
2023-03-20T14:56:52.879Z,16.60
2023-03-20T14:59:24.419Z,15.90
2023-03-20T15:01:57.185Z,16.88
2023-03-20T15:04:38.539Z,17.02
2023-03-20T15:07:21.582Z,16.35
2023-03-20T15:09:53.455Z,16.80
2023-03-20T15:12:31.035Z,16.83
2023-03-20T15:15:05.493Z,16.20
2023-03-20T15:17:41.393Z,16.33
2023-03-20T15:20:20.301Z,16.73
2023-03-20T15:22:52.636Z,16.67
2023-03-20T15:25:22.097Z,17.07
2023-03-20T15:27:50.489Z,17.30
2023-03-20T15:30:20.375Z,16.77
2023-03-20T15:32:49.482Z,16.90
2023-03-20T15:35:23.277Z,16.58
2023-03-20T15:37:51.677Z,17.42
2023-03-20T15:40:34.425Z,17.20
2023-03-20T15:43:24.005Z,17.17
2023-03-20T15:46:02.831Z,16.90
2023-03-20T15:48:33.617Z,17.13
2023-03-20T15:51:05.021Z,17.05
2023-03-20T15:53:40.004Z,17.85
2023-03-20T15:56:19.055Z,17.23
2023-03-20T15:58:49.565Z,17.55
2023-03-20T16:01:19.780Z,17.35
2023-03-20T16:03:47.054Z,17.10
2023-03-20T16:06:17.972Z,17.48
2023-03-20T16:08:46.893Z,17.45
2023-03-20T16:11:16.834Z,17.48
2023-03-20T16:13:47.958Z,17.67
2023-03-20T16:16:18.504Z,17.77
2023-03-20T16:18:49.331Z,18.13
2023-03-20T16:21:25.667Z,17.27
2023-03-20T16:23:55.679Z,16.92
2023-03-20T16:26:24.778Z,16.75
2023-03-20T16:28:55.076Z,16.90
2023-03-20T16:31:33.413Z,17.17
2023-03-20T16:34:04.497Z,16.90
2023-03-20T16:36:37.372Z,16.45
2023-03-20T16:39:16.403Z,16.55
2023-03-20T16:41:45.104Z,16.93
2023-03-20T16:44:18.775Z,16.75
2023-03-20T16:47:20.830Z,16.95
2023-03-20T16:49:52.221Z,16.67
2023-03-20T16:52:26.817Z,16.83
2023-03-20T16:54:57.320Z,16.38
2023-03-20T16:57:25.826Z,15.90
2023-03-20T16:59:58.658Z,16.10
2023-03-20T17:02:30.245Z,16.20
2023-03-20T17:05:04.246Z,15.48
2023-03-20T17:07:31.724Z,15.25
2023-03-20T17:10:10.084Z,15.05
2023-03-20T17:12:40.671Z,14.82
2023-03-20T17:15:08.040Z,15.10
2023-03-20T17:17:35.115Z,14.75
2023-03-20T17:20:02.025Z,14.85
2023-03-20T17:22:33.559Z,14.93
2023-03-20T17:25:00.559Z,14.57
2023-03-20T17:27:29.338Z,16.25
2023-03-20T17:29:56.695Z,15.80
2023-03-20T17:32:24.242Z,16.13
2023-03-20T17:34:51.781Z,16.63
2023-03-20T17:37:27.752Z,16.63
2023-03-20T17:39:56.301Z,15.82
2023-03-20T17:42:26.977Z,16.25
2023-03-20T17:44:53.976Z,16.60
2023-03-20T17:47:26.081Z,16.85
2023-03-20T17:49:54.586Z,18.00
2023-03-20T17:52:24.964Z,17.13
2023-03-20T17:54:52.434Z,17.95
2023-03-20T17:57:39.319Z,18.17
2023-03-20T18:00:34.224Z,18.52
2023-03-20T18:03:01.251Z,18.50
2023-03-20T18:05:28.711Z,19.65
2023-03-20T18:07:55.616Z,19.38
2023-03-20T18:10:35.927Z,19.13
2023-03-20T18:13:05.043Z,18.98
2023-03-20T18:15:32.248Z,19.58
2023-03-20T18:17:59.191Z,19.42
2023-03-20T18:20:32.267Z,20.67
2023-03-20T18:22:59.669Z,21.00
2023-03-20T18:25:27.729Z,21.20
2023-03-20T18:27:55.967Z,20.65
2023-03-20T18:30:26.026Z,21.75
2023-03-20T18:32:53.351Z,20.77
2023-03-20T18:35:20.276Z,21.20
2023-03-20T18:37:47.123Z,22.27
2023-03-20T18:40:26.388Z,21.33
2023-03-20T18:42:54.672Z,22.02
2023-03-20T18:45:22.506Z,23.10
2023-03-20T18:47:50.194Z,22.52
2023-03-20T18:50:23.753Z,22.25
2023-03-20T18:52:52.230Z,23.33
2023-03-20T18:55:19.491Z,23.45
2023-03-20T18:57:46.786Z,22.92
2023-03-20T19:00:25.552Z,22.50
2023-03-20T19:02:57.608Z,23.20
2023-03-20T19:05:26.717Z,24.15
2023-03-20T19:07:53.950Z,24.67
2023-03-20T19:10:40.058Z,23.50
2023-03-20T19:13:07.716Z,23.15
2023-03-20T19:15:36.775Z,22.80
2023-03-20T19:18:05.275Z,23.15
2023-03-20T19:20:34.246Z,22.60
2023-03-20T19:23:05.596Z,23.65
2023-03-20T19:25:33.239Z,23.58
2023-03-20T19:28:01.081Z,21.83
2023-03-20T19:30:36.550Z,23.40
2023-03-20T19:33:05.276Z,22.57
2023-03-20T19:36:01.406Z,20.33
2023-03-20T19:38:22.178Z,21.58
2023-03-20T19:40:53.019Z,19.45
2023-03-20T19:43:24.057Z,19.23
2023-03-20T19:45:57.275Z,18.80
2023-03-20T19:48:46.073Z,18.30
2023-03-20T19:51:19.180Z,19.42
2023-03-20T19:53:46.660Z,20.02
2023-03-20T19:56:15.738Z,20.30
2023-03-20T19:58:43.399Z,20.05
2023-03-20T20:01:23.940Z,19.23
2023-03-20T20:03:53.480Z,17.75
2023-03-20T20:06:22.311Z,17.05
2023-03-20T20:08:50.665Z,17.10
2023-03-20T20:11:19.538Z,17.03
2023-03-20T20:14:07.224Z,16.13
2023-03-20T20:16:39.769Z,16.38
2023-03-20T20:19:07.042Z,16.92
2023-03-20T20:24:21.421Z,15.40
2023-03-20T20:27:03.167Z,15.65
2023-03-20T20:29:39.938Z,15.50
2023-03-20T20:32:06.971Z,15.80
2023-03-20T20:38:08.975Z,16.67
2023-03-20T20:40:13.551Z,16.70
2023-03-20T20:42:41.348Z,16.17
2023-03-20T20:45:11.775Z,16.58
2023-03-20T20:47:41.056Z,16.55
2023-03-20T20:50:09.616Z,15.38
2023-03-20T20:52:39.110Z,16.10
2023-03-20T20:55:21.991Z,16.73
2023-03-20T20:57:51.232Z,17.30
2023-03-20T21:00:24.661Z,18.05
2023-03-20T21:02:56.522Z,18.65
2023-03-20T21:05:23.446Z,18.67
2023-03-20T21:07:51.505Z,19.27
2023-03-20T21:10:21.270Z,22.20
2023-03-20T21:12:59.039Z,22.65
2023-03-20T21:15:27.456Z,24.85
2023-03-20T21:18:00.937Z,25.20
2023-03-20T21:20:32.132Z,25.10
2023-03-20T21:22:59.114Z,24.48
2023-03-20T21:25:39.162Z,23.02
2023-03-20T21:28:08.082Z,23.47
2023-03-20T21:30:35.152Z,21.80
2023-03-20T21:33:03.313Z,22.10
2023-03-20T21:35:30.525Z,21.17
2023-03-20T21:38:47.449Z,19.17
2023-03-20T21:40:45.027Z,19.13
2023-03-20T21:43:12.674Z,18.43
2023-03-20T21:49:31.421Z,19.42
2023-03-20T21:52:20.161Z,21.17
2023-03-20T21:54:56.510Z,20.83
2023-03-20T21:57:27.915Z,20.08
2023-03-20T22:02:27.658Z,18.42
2023-03-20T22:17:08.822Z,16.88
2023-03-20T22:22:34.427Z,16.23
2023-03-20T22:25:15.770Z,16.00
2023-03-20T22:27:58.687Z,15.77
2023-03-20T22:30:56.209Z,16.05
2023-03-20T22:33:49.402Z,16.73
2023-03-20T22:44:53.284Z,15.60
2023-03-20T22:46:53.869Z,16.20
2023-03-20T22:49:21.263Z,16.10
2023-03-20T22:52:07.859Z,15.65
2023-03-20T22:54:37.683Z,16.55
2023-03-20T22:57:04.572Z,16.30
2023-03-20T22:59:31.405Z,16.53
2023-03-20T23:01:59.027Z,16.98
2023-03-20T23:04:27.866Z,18.50
2023-03-20T23:06:55.698Z,19.95
2023-03-20T23:09:22.746Z,20.27
2023-03-20T23:11:49.530Z,21.67
2023-03-20T23:14:23.634Z,23.08
2023-03-20T23:16:51.779Z,23.35
2023-03-20T23:19:18.707Z,23.63
2023-03-20T23:21:45.749Z,22.88
2023-03-20T23:24:12.773Z,22.27
2023-03-20T23:26:39.717Z,22.73
2023-03-20T23:29:06.591Z,22.88
2023-03-20T23:31:33.855Z,22.52
2023-03-20T23:34:00.934Z,21.25
2023-03-20T23:36:36.425Z,21.70
2023-03-20T23:39:06.480Z,22.03
2023-03-20T23:42:04.660Z,21.42
2023-03-20T23:44:21.097Z,22.20
2023-03-20T23:46:48.448Z,20.98
2023-03-20T23:49:16.586Z,21.20
2023-03-20T23:51:43.748Z,20.67
2023-03-20T23:54:11.620Z,20.42
2023-03-20T23:56:38.761Z,19.83
2023-03-20T23:59:20.227Z,19.13
